Time;durP1;ratioP1;P1;durP2;ratioP2;P2;SDS_P1;SDS_P2;PMS_P1;PMS_P2;Temp;Humidity;BMP_temperature;BMP_pressure;BME280_temperature;BME280_humidity;BME280_pressure;Samples;Min_cycle;Max_cycle;Signal;HPM_P1;HPM_P2
2021/07/15 00:00:48;;;;;;;;;;;;;;;;;;4983224;28;1637;-53
2021/07/15 00:03:16;;;;;;;;;;;;;;;;;;4983001;28;1519;-53
2021/07/15 00:05:41;;;;;;;;;;;;;;;;;;4983769;28;1927;-53
2021/07/15 00:08:07;;;;;;;;;;;;;;;;;;4979884;28;1371;-53
2021/07/15 00:10:33;;;;;;;;;;;;;;;;;;4977470;28;1584;-53
2021/07/15 00:12:59;;;;;;;;;;;;;;;;;;4985059;28;1135;-53
2021/07/15 00:15:25;;;;;;;;;;;;;;;;;;4979780;28;1261;-52
2021/07/15 00:17:51;;;;;;;;;;;;;;;;;;4986385;28;1615;-53
2021/07/15 00:20:16;;;;;;;;;;;;;;;;;;4986673;28;1534;-53
2021/07/15 00:22:41;;;;;;;;;;;;;;;;;;4986881;28;1075;-53
2021/07/15 00:25:07;;;;;;;;;;;;;;;;;;4984270;28;1591;-53
2021/07/15 00:27:32;;;;;;;;;;;;;;;;;;4986174;28;1914;-53
2021/07/15 00:29:57;;;;;;;;;;;;;;;;;;4985468;28;1436;-53
2021/07/15 00:32:23;;;;;;;;;;;;;;;;;;4987086;28;1234;-53
2021/07/15 00:34:48;;;;;;;;;;;;;;;;;;4981707;28;1608;-53
2021/07/15 00:37:13;;;;;;;;;;;;;;;;;;4986494;28;1249;-53
2021/07/15 00:39:38;;;;;;;;;;;;;;;;;;4984529;28;1588;-52
2021/07/15 00:42:03;;;;;;;;;;;;;;;;;;4985143;28;1555;-53
2021/07/15 00:44:28;;;;;;;;;;;;;;;;;;4984516;28;1150;-53
2021/07/15 00:46:54;;;;;;;;;;;;;;;;;;4983779;28;1906;-53
2021/07/15 00:49:19;;;;;;;;;;;;;;;;;;4983473;28;1545;-52
2021/07/15 00:51:44;;;;;;;;;;;;;;;;;;4985115;28;1122;-53
2021/07/15 00:54:09;;;;;;;;;;;;;;;;;;4996940;28;1588;-52
2021/07/15 00:56:35;;;;;;;;;;;;;;;;;;4998300;28;1337;-52
2021/07/15 00:59:00;;;;;;;;;;;;;;;;;;4979369;28;1631;-53
2021/07/15 01:01:25;;;;;;;;;;;;;;;;;;4981187;28;1678;-53
2021/07/15 01:03:51;;;;;;;;;;;;;;;;;;4983107;28;1365;-53
2021/07/15 01:06:17;;;;;;;;;;;;;;;;;;4984958;28;1957;-53
2021/07/15 01:08:42;;;;;;;;;;;;;;;;;;4982086;28;1624;-53
2021/07/15 01:11:11;;;;;;;;;;;;;;;;;;4984642;28;1651;-53
2021/07/15 01:13:48;;;;;;;;;;;;;;;;;;4998656;28;1102;-53
2021/07/15 01:16:16;;;;;;;;;;;;;;;;;;4981964;28;1224;-53
2021/07/15 01:18:41;;;;;;;;;;;;;;;;;;5047189;23;1793;-52
2021/07/15 01:21:19;;;;;;;;;;;;;;;;;;5035019;28;1611;-53
2021/07/15 01:23:53;;;;;;;;;;;;;;;;;;5024494;28;1150;-53
2021/07/15 01:26:19;;;;;;;;;;;;;;;;;;5021769;28;1985;-53
2021/07/15 01:28:53;;;;;;;;;;;;;;;;;;5041250;28;1438;-52
2021/07/15 01:31:19;;;;;;;;;;;;;;;;;;5022597;28;1173;-53
2021/07/15 01:33:44;;;;;;;;;;;;;;;;;;5021973;28;1572;-53
2021/07/15 01:36:10;;;;;;;;;;;;;;;;;;5023530;28;1191;-53
2021/07/15 01:38:35;;;;;;;;;;;;;;;;;;5023052;28;1304;-53
2021/07/15 01:41:04;;;;;;;;;;;;;;;;;;5039459;28;1727;-52
2021/07/15 01:43:34;;;;;;;;;;;;;;;;;;5041456;28;1172;-52
2021/07/15 01:45:59;;;;;;;;;;;;;;;;;;5020457;28;1918;-52
2021/07/15 01:48:24;;;;;;;;;;;;;;;;;;5034407;28;1533;-52
2021/07/15 01:50:50;;;;;;;;;;;;;;;;;;5007771;28;1447;-52
2021/07/15 01:53:15;;;;;;;;;;;;;;;;;;5021630;28;1140;-53
2021/07/15 01:55:40;;;;;;;;;;;;;;;;;;5038693;28;1597;-53
2021/07/15 01:58:06;;;;;;;;;;;;;;;;;;5038097;28;1451;-53
2021/07/15 02:00:31;;;;;;;;;;;;;;;;;;5023066;28;1204;-53
2021/07/15 02:02:56;;;;;;;;;;;;;;;;;;5022316;28;1227;-52
2021/07/15 02:05:21;;;;;;;;;;;;;;;;;;5020759;28;1559;-53
2021/07/15 02:07:47;;;;;;;;;;;;;;;;;;5022288;28;1934;-53
2021/07/15 02:10:14;;;;;;;;;;;;;;;;;;5038542;28;1565;-52
2021/07/15 02:12:39;;;;;;;;;;;;;;;;;;5037984;28;1221;-53
2021/07/15 02:15:05;;;;;;;;;;;;;;;;;;5021194;28;1467;-52
2021/07/15 02:17:33;;;;;;;;;;;;;;;;;;5039470;28;1292;-53
2021/07/15 02:19:58;;;;;;;;;;;;;;;;;;5018251;28;1627;-52
2021/07/15 02:22:23;;;;;;;;;;;;;;;;;;5023134;28;1275;-52
2021/07/15 02:24:49;;;;;;;;;;;;;;;;;;5021069;28;1563;-52
2021/07/15 02:27:14;;;;;;;;;;;;;;;;;;5040529;28;1918;-53
2021/07/15 02:29:39;;;;;;;;;;;;;;;;;;5020196;28;1156;-52
2021/07/15 02:32:07;;;;;;;;;;;;;;;;;;5040479;28;1357;-52
2021/07/15 02:34:39;;;;;;;;;;;;;;;;;;5035228;28;2134;-51
2021/07/15 02:37:05;;;;;;;;;;;;;;;;;;5038163;28;1390;-52
2021/07/15 02:39:30;;;;;;;;;;;;;;;;;;5020115;28;1590;-52
2021/07/15 02:41:55;;;;;;;;;;;;;;;;;;5040257;28;1365;-53
2021/07/15 02:44:21;;;;;;;;;;;;;;;;;;5022830;28;1375;-53
2021/07/15 02:46:46;;;;;;;;;;;;;;;;;;5036573;28;1952;-53
2021/07/15 02:49:12;;;;;;;;;;;;;;;;;;5038149;28;1674;-52
2021/07/15 02:51:37;;;;;;;;;;;;;;;;;;5037113;28;1532;-52
2021/07/15 02:54:03;;;;;;;;;;;;;;;;;;5040501;28;1684;-53
2021/07/15 02:56:31;;;;;;;;;;;;;;;;;;5014715;28;1611;-53
2021/07/15 02:59:05;;;;;;;;;;;;;;;;;;5028986;28;1561;-52
2021/07/15 03:01:34;;;;;;;;;;;;;;;;;;5030727;28;1587;-50
2021/07/15 03:04:00;;;;;;;;;;;;;;;;;;5014720;28;1630;-53
2021/07/15 03:06:28;;;;;;;;;;;;;;;;;;5022795;28;1959;-52
2021/07/15 03:08:53;;;;;;;;;;;;;;;;;;5013518;28;1622;-53
2021/07/15 03:11:19;;;;;;;;;;;;;;;;;;5011930;28;1813;-52
2021/07/15 03:13:44;;;;;;;;;;;;;;;;;;5029529;28;1585;-53
2021/07/15 03:16:09;;;;;;;;;;;;;;;;;;5009294;28;1622;-53
2021/07/15 03:18:34;;;;;;;;;;;;;;;;;;5022427;28;1359;-52
2021/07/15 03:21:01;;;;;;;;;;;;;;;;;;5016792;28;1926;-53
2021/07/15 03:23:26;;;;;;;;;;;;;;;;;;5022553;28;1185;-53
2021/07/15 03:25:52;;;;;;;;;;;;;;;;;;5015973;28;1985;-53
2021/07/15 03:28:18;;;;;;;;;;;;;;;;;;5037486;28;1448;-53
2021/07/15 03:30:43;;;;;;;;;;;;;;;;;;5037041;28;1282;-53
2021/07/15 03:33:09;;;;;;;;;;;;;;;;;;5017956;28;1581;-53
2021/07/15 03:35:34;;;;;;;;;;;;;;;;;;5022834;28;1186;-53
2021/07/15 03:37:59;;;;;;;;;;;;;;;;;;5018664;28;1422;-53
2021/07/15 03:40:25;;;;;;;;;;;;;;;;;;5019932;28;1630;-53
2021/07/15 03:42:50;;;;;;;;;;;;;;;;;;5016611;28;1498;-53
2021/07/15 03:45:16;;;;;;;;;;;;;;;;;;5022892;28;1129;-53
2021/07/15 03:47:42;;;;;;;;;;;;;;;;;;5036236;28;1906;-53
2021/07/15 03:50:07;;;;;;;;;;;;;;;;;;5037402;28;1480;-53
2021/07/15 03:52:32;;;;;;;;;;;;;;;;;;5036079;28;1545;-51
2021/07/15 03:54:58;;;;;;;;;;;;;;;;;;5022593;28;1579;-53
2021/07/15 03:57:23;;;;;;;;;;;;;;;;;;5025399;28;1284;-52
2021/07/15 03:59:49;;;;;;;;;;;;;;;;;;5025894;28;1085;-53
2021/07/15 04:02:15;;;;;;;;;;;;;;;;;;5023285;28;1380;-53
2021/07/15 04:04:41;;;;;;;;;;;;;;;;;;5040309;28;1767;-53
2021/07/15 04:07:06;;;;;;;;;;;;;;;;;;5024939;28;1938;-53
2021/07/15 04:09:33;;;;;;;;;;;;;;;;;;5024292;28;1677;-51
2021/07/15 04:11:58;;;;;;;;;;;;;;;;;;5025285;28;1110;-53
2021/07/15 04:14:39;;;;;;;;;;;;;;;;;;5023926;28;1441;-53
2021/07/15 04:17:07;;;;;;;;;;;;;;;;;;5041313;28;1307;-50
2021/07/15 04:19:33;;;;;;;;;;;;;;;;;;5036674;28;1625;-50
2021/07/15 04:21:58;;;;;;;;;;;;;;;;;;5040622;28;1090;-53
2021/07/15 04:24:24;;;;;;;;;;;;;;;;;;5040277;28;1513;-53
2021/07/15 04:26:49;;;;;;;;;;;;;;;;;;5041024;28;1972;-53
2021/07/15 04:29:14;;;;;;;;;;;;;;;;;;5026324;28;1188;-53
2021/07/15 04:31:39;;;;;;;;;;;;;;;;;;5024530;28;1322;-52
2021/07/15 04:34:05;;;;;;;;;;;;;;;;;;5036521;28;1525;-51
2021/07/15 04:36:30;;;;;;;;;;;;;;;;;;5042052;28;1226;-53
2021/07/15 04:38:55;;;;;;;;;;;;;;;;;;5023734;28;1582;-50
2021/07/15 04:41:20;;;;;;;;;;;;;;;;;;5021816;28;1351;-53
2021/07/15 04:43:45;;;;;;;;;;;;;;;;;;5040249;28;1072;-52
2021/07/15 04:46:11;;;;;;;;;;;;;;;;;;5024302;28;1902;-53
2021/07/15 04:48:36;;;;;;;;;;;;;;;;;;5020149;28;1658;-52
2021/07/15 04:51:01;;;;;;;;;;;;;;;;;;5024798;28;1132;-53
2021/07/15 04:53:26;;;;;;;;;;;;;;;;;;5021168;28;1436;-52
2021/07/15 04:55:54;;;;;;;;;;;;;;;;;;5023553;28;1599;-53
2021/07/15 04:58:20;;;;;;;;;;;;;;;;;;5023386;28;1423;-53
2021/07/15 05:00:45;;;;;;;;;;;;;;;;;;5043448;28;1311;-53
2021/07/15 05:03:30;;;;;;;;;;;;;;;;;;5021759;28;1641;-53
2021/07/15 05:05:55;;;;;;;;;;;;;;;;;;5035802;28;1894;-50
2021/07/15 05:08:20;;;;;;;;;;;;;;;;;;5041805;28;1366;-53
2021/07/15 05:10:46;;;;;;;;;;;;;;;;;;5036633;28;1609;-52
2021/07/15 05:13:11;;;;;;;;;;;;;;;;;;5023519;28;1093;-53
2021/07/15 05:15:36;;;;;;;;;;;;;;;;;;5039239;28;1462;-53
2021/07/15 05:18:01;;;;;;;;;;;;;;;;;;5042226;28;1302;-53
2021/07/15 05:20:26;;;;;;;;;;;;;;;;;;5040030;28;1815;-51
2021/07/15 05:22:52;;;;;;;;;;;;;;;;;;5041422;28;1410;-53
2021/07/15 05:25:17;;;;;;;;;;;;;;;;;;5038801;28;1562;-53
2021/07/15 05:27:42;;;;;;;;;;;;;;;;;;5039383;28;1970;-53
2021/07/15 05:30:08;;;;;;;;;;;;;;;;;;5041095;28;1109;-53
2021/07/15 05:32:33;;;;;;;;;;;;;;;;;;5038653;28;1419;-52
2021/07/15 05:34:58;;;;;;;;;;;;;;;;;;5039905;28;1721;-53
2021/07/15 05:37:23;;;;;;;;;;;;;;;;;;5022366;28;1279;-53
2021/07/15 05:39:49;;;;;;;;;;;;;;;;;;5040445;28;1482;-53
2021/07/15 05:42:14;;;;;;;;;;;;;;;;;;5041394;28;1556;-53
2021/07/15 05:44:39;;;;;;;;;;;;;;;;;;5038152;28;1621;-53
2021/07/15 05:47:04;;;;;;;;;;;;;;;;;;5039502;28;1937;-53
2021/07/15 05:49:29;;;;;;;;;;;;;;;;;;5041679;28;1298;-52
2021/07/15 05:51:55;;;;;;;;;;;;;;;;;;5041804;28;993;-52
2021/07/15 05:54:20;;;;;;;;;;;;;;;;;;5038124;28;1516;-53
2021/07/15 05:56:45;;;;;;;;;;;;;;;;;;5035535;28;1590;-53
2021/07/15 05:59:10;;;;;;;;;;;;;;;;;;5041318;28;1256;-53
2021/07/15 06:01:35;;;;;;;;;;;;;;;;;;5039937;28;1086;-52
2021/07/15 06:04:01;;;;;;;;;;;;;;;;;;5038344;28;1594;-52
2021/07/15 06:06:26;;;;;;;;;;;;;;;;;;5038849;28;1902;-53
2021/07/15 06:08:53;;;;;;;;;;;;;;;;;;5040492;28;1367;-50
2021/07/15 06:11:18;;;;;;;;;;;;;;;;;;5040454;28;1742;-53
2021/07/15 06:13:43;;;;;;;;;;;;;;;;;;5040085;28;1263;-50
2021/07/15 06:16:08;;;;;;;;;;;;;;;;;;5037870;28;1261;-53
2021/07/15 06:18:34;;;;;;;;;;;;;;;;;;5038807;28;1585;-53
2021/07/15 06:20:59;;;;;;;;;;;;;;;;;;5040977;28;1152;-53
2021/07/15 06:23:25;;;;;;;;;;;;;;;;;;5041874;28;1256;-52
2021/07/15 06:25:50;;;;;;;;;;;;;;;;;;5036185;28;1906;-51
2021/07/15 06:28:15;;;;;;;;;;;;;;;;;;5039623;28;1374;-51
2021/07/15 06:30:40;;;;;;;;;;;;;;;;;;5040573;28;1199;-53
2021/07/15 06:33:05;;;;;;;;;;;;;;;;;;5038717;28;1669;-53
2021/07/15 06:35:32;;;;;;;;;;;;;;;;;;5040521;28;1195;-52
2021/07/15 06:37:57;;;;;;;;;;;;;;;;;;5038631;28;1276;-53
2021/07/15 06:40:22;;;;;;;;;;;;;;;;;;5037967;28;1624;-53
2021/07/15 06:42:48;;;;;;;;;;;;;;;;;;5039720;28;1098;-53
2021/07/15 06:45:14;;;;;;;;;;;;;;;;;;5041716;28;1156;-53
2021/07/15 06:47:39;;;;;;;;;;;;;;;;;;5038621;28;1969;-53
2021/07/15 06:50:05;;;;;;;;;;;;;;;;;;5035864;28;1570;-53
2021/07/15 06:52:30;;;;;;;;;;;;;;;;;;5039546;28;1168;-53
2021/07/15 06:54:56;;;;;;;;;;;;;;;;;;5034835;28;1559;-53
2021/07/15 06:57:21;;;;;;;;;;;;;;;;;;5039674;28;1390;-53
2021/07/15 06:59:46;;;;;;;;;;;;;;;;;;5038161;28;1144;-51
2021/07/15 07:02:11;;;;;;;;;;;;;;;;;;5040647;28;1227;-53
2021/07/15 07:04:36;;;;;;;;;;;;;;;;;;5037356;28;1601;-52
2021/07/15 07:07:02;;;;;;;;;;;;;;;;;;5040784;28;1914;-53
2021/07/15 07:09:27;;;;;;;;;;;;;;;;;;5032750;28;1653;-50
2021/07/15 07:11:52;;;;;;;;;;;;;;;;;;5039420;28;1031;-53
2021/07/15 07:14:17;;;;;;;;;;;;;;;;;;5039263;28;1148;-53
2021/07/15 07:16:43;;;;;;;;;;;;;;;;;;5040048;28;1452;-53
2021/07/15 07:21:35;;;;;;;;;;;;;;;;;;4997843;28;1703;-53
2021/07/15 07:24:01;;;;;;;;;;;;;;;;;;5000442;28;1635;-53
2021/07/15 07:26:26;;;;;;;;;;;;;;;;;;5001055;28;1981;-53
2021/07/15 07:28:51;;;;;;;;;;;;;;;;;;5008130;28;1558;-53
2021/07/15 07:31:16;;;;;;;;;;;;;;;;;;5004889;28;1256;-52
2021/07/15 07:33:41;;;;;;;;;;;;;;;;;;5005264;28;1579;-53
2021/07/15 07:36:07;;;;;;;;;;;;;;;;;;5004966;28;1586;-53
2021/07/15 07:38:32;;;;;;;;;;;;;;;;;;5005215;28;1363;-53
2021/07/15 07:40:57;;;;;;;;;;;;;;;;;;5003998;28;1642;-53
2021/07/15 07:43:22;;;;;;;;;;;;;;;;;;5004635;28;1182;-53
2021/07/15 07:45:47;;;;;;;;;;;;;;;;;;5003484;28;1906;-53
2021/07/15 07:48:13;;;;;;;;;;;;;;;;;;5004252;28;1336;-53
2021/07/15 07:50:38;;;;;;;;;;;;;;;;;;5004597;28;1102;-53
2021/07/15 07:53:03;;;;;;;;;;;;;;;;;;5004123;28;1517;-53
2021/07/15 07:55:28;;;;;;;;;;;;;;;;;;5006708;28;1653;-53
2021/07/15 07:57:53;;;;;;;;;;;;;;;;;;5004109;28;1340;-53
2021/07/15 08:00:19;;;;;;;;;;;;;;;;;;5006815;28;1765;-53
2021/07/15 08:02:44;;;;;;;;;;;;;;;;;;5007914;28;1543;-53
2021/07/15 08:05:10;;;;;;;;;;;;;;;;;;5011135;28;1044;-52
2021/07/15 08:07:35;;;;;;;;;;;;;;;;;;5012380;28;1898;-53
2021/07/15 08:10:01;;;;;;;;;;;;;;;;;;5010731;28;1718;-53
2021/07/15 08:12:26;;;;;;;;;;;;;;;;;;5011741;28;1377;-53
2021/07/15 08:14:51;;;;;;;;;;;;;;;;;;5012832;28;1170;-53
2021/07/15 08:17:16;;;;;;;;;;;;;;;;;;5012786;28;1279;-53
2021/07/15 08:19:42;;;;;;;;;;;;;;;;;;5010937;28;1586;-53
2021/07/15 08:22:07;;;;;;;;;;;;;;;;;;5012543;28;1293;-53
2021/07/15 08:24:32;;;;;;;;;;;;;;;;;;5011775;28;1615;-52
2021/07/15 08:26:57;;;;;;;;;;;;;;;;;;5011904;28;1965;-52
2021/07/15 08:29:22;;;;;;;;;;;;;;;;;;5012414;28;1411;-52
2021/07/15 08:31:48;;;;;;;;;;;;;;;;;;5011508;28;1563;-51
2021/07/15 08:34:13;;;;;;;;;;;;;;;;;;5012856;28;1142;-52
2021/07/15 08:36:38;;;;;;;;;;;;;;;;;;5012378;28;1170;-52
2021/07/15 08:39:03;;;;;;;;;;;;;;;;;;5010808;28;1602;-52
2021/07/15 08:41:29;;;;;;;;;;;;;;;;;;5011866;28;1221;-52
2021/07/15 08:43:54;;;;;;;;;;;;;;;;;;5011998;28;1309;-52
2021/07/15 08:46:20;;;;;;;;;;;;;;;;;;5010168;28;1964;-52
2021/07/15 08:48:46;;;;;;;;;;;;;;;;;;5012461;28;1320;-52
2021/07/15 08:51:11;;;;;;;;;;;;;;;;;;5012079;28;1070;-52
2021/07/15 08:53:36;;;;;;;;;;;;;;;;;;4994059;28;1685;-52
2021/07/15 08:58:45;;;;;;;;;;;;;;;;;;5011515;28;1505;-52
2021/07/15 09:01:11;;;;;;;;;;;;;;;;;;5011600;28;1154;-52
2021/07/15 09:03:36;;;;;;;;;;;;;;;;;;5010941;28;1563;-52
2021/07/15 09:06:01;;;;;;;;;;;;;;;;;;5011714;28;1935;-52
2021/07/15 09:08:28;;;;;;;;;;;;;;;;;;5011933;28;1272;-52
2021/07/15 09:10:54;;;;;;;;;;;;;;;;;;4992170;28;1600;-52
2021/07/15 09:13:19;;;;;;;;;;;;;;;;;;5011924;28;1201;-52
2021/07/15 09:15:50;;;;;;;;;;;;;;;;;;5012003;28;1103;-50
2021/07/15 09:18:15;;;;;;;;;;;;;;;;;;5009206;28;1551;-50
2021/07/15 09:20:40;;;;;;;;;;;;;;;;;;5009969;28;1655;-52
2021/07/15 09:23:06;;;;;;;;;;;;;;;;;;5011372;28;1158;-52
2021/07/15 09:25:34;;;;;;;;;;;;;;;;;;5010235;28;1586;-52
2021/07/15 09:27:59;;;;;;;;;;;;;;;;;;5010605;28;1906;-51
2021/07/15 09:30:25;;;;;;;;;;;;;;;;;;4994713;28;1142;-52
2021/07/15 09:32:53;;;;;;;;;;;;;;;;;;5006684;28;1440;-52
2021/07/15 09:35:37;;;;;;;;;;;;;;;;;;5003667;28;1706;-53
2021/07/15 09:38:08;;;;;;;;;;;;;;;;;;5001428;28;1432;-52
2021/07/15 09:40:43;;;;;;;;;;;;;;;;;;5004099;28;1682;-53
2021/07/15 09:43:12;;;;;;;;;;;;;;;;;;5001288;28;1494;-52
2021/07/15 09:45:37;;;;;;;;;;;;;;;;;;5004869;28;1591;-52
2021/07/15 09:48:11;;;;;;;;;;;;;;;;;;5002317;28;1910;-53
2021/07/15 09:50:36;;;;;;;;;;;;;;;;;;5004136;28;1173;-53
2021/07/15 09:53:12;;;;;;;;;;;;;;;;;;4983655;28;1649;-52
2021/07/15 09:55:37;;;;;;;;;;;;;;;;;;5006065;28;1527;-52
2021/07/15 09:58:03;;;;;;;;;;;;;;;;;;5005770;28;1363;-52
2021/07/15 10:00:34;;;;;;;;;;;;;;;;;;5004028;28;1169;-53
2021/07/15 10:03:00;;;;;;;;;;;;;;;;;;5002782;28;1626;-53
2021/07/15 10:05:25;;;;;;;;;;;;;;;;;;4999645;28;1174;-52
2021/07/15 10:07:50;;;;;;;;;;;;;;;;;;5005421;28;1910;-52
2021/07/15 10:10:16;;;;;;;;;;;;;;;;;;4995408;28;1656;-52
2021/07/15 10:12:41;;;;;;;;;;;;;;;;;;5005055;28;1174;-53
2021/07/15 10:15:07;;;;;;;;;;;;;;;;;;5004226;28;1201;-53
2021/07/15 10:17:39;;;;;;;;;;;;;;;;;;5003958;28;1703;-51
2021/07/15 10:20:14;;;;;;;;;;;;;;;;;;5003188;28;1163;-53
2021/07/15 10:22:40;;;;;;;;;;;;;;;;;;5003470;28;1130;-52
2021/07/15 10:25:06;;;;;;;;;;;;;;;;;;5002899;28;1696;-52
2021/07/15 10:27:31;;;;;;;;;;;;;;;;;;5005370;28;1914;-52
2021/07/15 10:29:57;;;;;;;;;;;;;;;;;;5004536;28;1232;-52
2021/07/15 10:32:23;;;;;;;;;;;;;;;;;;4998887;28;1166;-53
2021/07/15 10:34:52;;;;;;;;;;;;;;;;;;4994592;28;1597;-53
2021/07/15 10:37:17;;;;;;;;;;;;;;;;;;4997447;28;1189;-53
2021/07/15 10:39:42;;;;;;;;;;;;;;;;;;4994751;28;1659;-53
2021/07/15 10:42:08;;;;;;;;;;;;;;;;;;4996797;28;1230;-52
2021/07/15 10:44:33;;;;;;;;;;;;;;;;;;5003223;28;1213;-52
2021/07/15 10:46:58;;;;;;;;;;;;;;;;;;4991616;28;1906;-52
2021/07/15 10:49:23;;;;;;;;;;;;;;;;;;4996767;28;1569;-52
2021/07/15 10:51:49;;;;;;;;;;;;;;;;;;5002497;28;1659;-52
2021/07/15 10:54:15;;;;;;;;;;;;;;;;;;4996603;28;1619;-52
2021/07/15 10:56:40;;;;;;;;;;;;;;;;;;5005725;28;1162;-52
2021/07/15 10:59:20;;;;;;;;;;;;;;;;;;5004392;28;1272;-52
2021/07/15 11:01:45;;;;;;;;;;;;;;;;;;5004831;28;1059;-51
2021/07/15 11:04:10;;;;;;;;;;;;;;;;;;5001863;28;1674;-52
2021/07/15 11:06:43;;;;;;;;;;;;;;;;;;5002814;28;1949;-52
2021/07/15 11:09:10;;;;;;;;;;;;;;;;;;5002706;28;1549;-52
2021/07/15 11:11:40;;;;;;;;;;;;;;;;;;5004261;28;1217;-52
2021/07/15 11:14:05;;;;;;;;;;;;;;;;;;5003533;28;1106;-53
2021/07/15 11:16:45;;;;;;;;;;;;;;;;;;5002869;28;1217;-52
2021/07/15 11:19:17;;;;;;;;;;;;;;;;;;4994773;28;1583;-52
2021/07/15 11:21:43;;;;;;;;;;;;;;;;;;5001881;28;996;-50
2021/07/15 11:24:08;;;;;;;;;;;;;;;;;;4995827;28;1588;-52
2021/07/15 11:26:41;;;;;;;;;;;;;;;;;;5002444;28;1996;-52
2021/07/15 11:29:06;;;;;;;;;;;;;;;;;;5004363;28;1292;-52
2021/07/15 11:31:47;;;;;;;;;;;;;;;;;;5002465;28;1170;-52
2021/07/15 11:34:33;;;;;;;;;;;;;;;;;;4994213;28;1659;-52
2021/07/15 11:37:17;;;;;;;;;;;;;;;;;;5005067;28;1014;-52
2021/07/15 11:39:42;;;;;;;;;;;;;;;;;;5001156;28;1620;-52
2021/07/15 11:42:20;;;;;;;;;;;;;;;;;;5001729;28;1542;-52
2021/07/15 11:45:05;;;;;;;;;;;;;;;;;;4998694;28;1530;-52
2021/07/15 11:47:42;;;;;;;;;;;;;;;;;;5002312;28;1911;-52
2021/07/15 11:50:07;;;;;;;;;;;;;;;;;;5000012;28;1741;-52
2021/07/15 11:52:32;;;;;;;;;;;;;;;;;;4995987;28;1202;-52
2021/07/15 11:54:57;;;;;;;;;;;;;;;;;;4997626;28;1558;-52
2021/07/15 11:57:23;;;;;;;;;;;;;;;;;;5004790;28;1327;-52
2021/07/15 11:59:48;;;;;;;;;;;;;;;;;;4999983;28;1117;-52
2021/07/15 12:02:29;;;;;;;;;;;;;;;;;;4998112;28;1050;-52
2021/07/15 12:05:07;;;;;;;;;;;;;;;;;;5000719;28;1557;-52
2021/07/15 12:07:32;;;;;;;;;;;;;;;;;;5002957;28;1961;-52
2021/07/15 12:09:58;;;;;;;;;;;;;;;;;;4991714;28;1723;-52
2021/07/15 12:12:23;;;;;;;;;;;;;;;;;;4998279;28;1498;-52
2021/07/15 12:14:52;;;;;;;;;;;;;;;;;;4998518;28;1213;-52
2021/07/15 12:17:17;;;;;;;;;;;;;;;;;;5003268;28;1359;-52
2021/07/15 12:19:52;;;;;;;;;;;;;;;;;;4967950;28;1051200;-52
2021/07/15 12:22:17;;;;;;;;;;;;;;;;;;5002796;28;1237;-52
2021/07/15 12:24:42;;;;;;;;;;;;;;;;;;5006443;28;1606;-52
2021/07/15 12:27:09;;;;;;;;;;;;;;;;;;5003405;28;1918;-52
2021/07/15 12:29:37;;;;;;;;;;;;;;;;;;4998914;28;1459;-52
2021/07/15 12:32:03;;;;;;;;;;;;;;;;;;5004938;28;1683;-52
2021/07/15 12:34:28;;;;;;;;;;;;;;;;;;5003931;28;1404;-52
2021/07/15 12:36:53;;;;;;;;;;;;;;;;;;4998282;28;995;-52
2021/07/15 12:39:19;;;;;;;;;;;;;;;;;;5000798;28;1583;-52
2021/07/15 12:41:45;;;;;;;;;;;;;;;;;;5003299;28;1200;-52
2021/07/15 12:44:14;;;;;;;;;;;;;;;;;;5002466;28;1527;-52
2021/07/15 12:46:43;;;;;;;;;;;;;;;;;;5005623;28;1910;-51
2021/07/15 12:49:13;;;;;;;;;;;;;;;;;;5003211;28;1553;-51
2021/07/15 12:51:41;;;;;;;;;;;;;;;;;;5004941;28;1181;-52
2021/07/15 12:54:08;;;;;;;;;;;;;;;;;;5002206;28;1579;-52
2021/07/15 12:56:33;;;;;;;;;;;;;;;;;;5007014;28;1170;-52
2021/07/15 12:59:09;;;;;;;;;;;;;;;;;;5001528;28;1335;-52
2021/07/15 13:01:42;;;;;;;;;;;;;;;;;;5005104;28;1107;-52
2021/07/15 13:04:11;;;;;;;;;;;;;;;;;;5001255;28;1579;-52
2021/07/15 13:06:37;;;;;;;;;;;;;;;;;;5003585;28;2250;-51
2021/07/15 13:14:45;;;;;;;;;;;;;;;;;;4961357;28;1252;-52
2021/07/15 13:17:10;;;;;;;;;;;;;;;;;;4998396;28;1514;-50
2021/07/15 13:22:08;;;;;;;;;;;;;;;;;;5049103;23;2349;-54
2021/07/15 13:24:33;;;;;;;;;;;;;;;;;;5028553;28;1757;-55
2021/07/15 13:26:58;;;;;;;;;;;;;;;;;;5029596;28;1976;-55
2021/07/15 13:29:34;;;;;;;;;;;;;;;;;;5030348;28;1373;-56
2021/07/15 13:32:09;;;;;;;;;;;;;;;;;;5015104;28;1213;-55
2021/07/15 13:34:36;;;;;;;;;;;;;;;;;;5008042;28;1567;-56
2021/07/15 13:37:01;;;;;;;;;;;;;;;;;;5010957;28;1177;-56
2021/07/15 13:39:36;;;;;;;;;;;;;;;;;;5007410;28;1556;-56
2021/07/15 13:42:01;;;;;;;;;;;;;;;;;;5010164;28;1378;-56
2021/07/15 13:44:26;;;;;;;;;;;;;;;;;;5008758;28;1415;-56
2021/07/15 13:46:59;;;;;;;;;;;;;;;;;;5012075;28;2066;-54
2021/07/15 13:49:24;;;;;;;;;;;;;;;;;;4992598;28;1536;-56
2021/07/15 13:51:49;;;;;;;;;;;;;;;;;;4993155;28;1299;-55
2021/07/15 13:54:14;;;;;;;;;;;;;;;;;;4990137;28;1572;-55
2021/07/15 13:56:40;;;;;;;;;;;;;;;;;;5011285;28;1237;-55
2021/07/15 13:59:05;;;;;;;;;;;;;;;;;;4996582;28;1409;-56
2021/07/15 14:01:30;;;;;;;;;;;;;;;;;;5008953;28;1596;-56
2021/07/15 14:03:55;;;;;;;;;;;;;;;;;;5010342;28;1336;-56
2021/07/15 14:06:21;;;;;;;;;;;;;;;;;;5011093;28;1902;-55
2021/07/15 14:08:55;;;;;;;;;;;;;;;;;;5007682;28;1244;-54
2021/07/15 14:11:20;;;;;;;;;;;;;;;;;;5007073;28;1723;-56
2021/07/15 14:13:46;;;;;;;;;;;;;;;;;;4990914;28;1408;-56
2021/07/15 14:16:11;;;;;;;;;;;;;;;;;;4993204;28;1319;-56
2021/07/15 14:18:36;;;;;;;;;;;;;;;;;;5010220;28;1368;-55
2021/07/15 14:21:02;;;;;;;;;;;;;;;;;;5008630;28;1763;-56
2021/07/15 14:23:28;;;;;;;;;;;;;;;;;;5007240;28;1423;-56
2021/07/15 14:25:57;;;;;;;;;;;;;;;;;;5005703;28;2113;-55
2021/07/15 14:28:22;;;;;;;;;;;;;;;;;;5007930;28;1998;-56
2021/07/15 14:30:47;;;;;;;;;;;;;;;;;;5008611;28;1664;-56
2021/07/15 14:33:13;;;;;;;;;;;;;;;;;;5010175;28;1137;-55
2021/07/15 14:35:38;;;;;;;;;;;;;;;;;;5009176;28;1613;-56
2021/07/15 14:38:04;;;;;;;;;;;;;;;;;;5004866;28;1609;-55
2021/07/15 14:40:29;;;;;;;;;;;;;;;;;;5007355;28;1592;-55
2021/07/15 14:42:54;;;;;;;;;;;;;;;;;;5005396;28;1540;-54
2021/07/15 14:45:20;;;;;;;;;;;;;;;;;;4944368;28;1486;-55
2021/07/15 14:47:45;;;;;;;;;;;;;;;;;;5010070;28;2289;-56
2021/07/15 14:50:11;;;;;;;;;;;;;;;;;;5009550;28;1280;-53
2021/07/15 14:52:36;;;;;;;;;;;;;;;;;;5008402;28;1627;-55
2021/07/15 14:55:02;;;;;;;;;;;;;;;;;;5007315;28;1671;-57
2021/07/15 14:57:27;;;;;;;;;;;;;;;;;;5010564;28;1183;-55
2021/07/15 14:59:52;;;;;;;;;;;;;;;;;;5004694;28;1509;-56
2021/07/15 15:02:17;;;;;;;;;;;;;;;;;;5010217;28;1094;-56
2021/07/15 15:04:42;;;;;;;;;;;;;;;;;;5008518;28;1311;-56
2021/07/15 15:07:08;;;;;;;;;;;;;;;;;;5008876;28;1969;-56
2021/07/15 15:09:33;;;;;;;;;;;;;;;;;;5007197;28;1627;-56
2021/07/15 15:11:58;;;;;;;;;;;;;;;;;;5009502;28;1209;-55
2021/07/15 15:14:23;;;;;;;;;;;;;;;;;;5009117;28;1304;-55
2021/07/15 15:16:48;;;;;;;;;;;;;;;;;;5009081;28;1591;-56
2021/07/15 15:19:14;;;;;;;;;;;;;;;;;;5009701;28;1174;-56
2021/07/15 15:21:39;;;;;;;;;;;;;;;;;;5010351;28;1266;-56
2021/07/15 15:24:04;;;;;;;;;;;;;;;;;;5007304;28;1579;-55
2021/07/15 15:26:30;;;;;;;;;;;;;;;;;;5009475;28;1968;-53
2021/07/15 15:28:55;;;;;;;;;;;;;;;;;;5008125;28;1540;-55
2021/07/15 15:31:20;;;;;;;;;;;;;;;;;;5009933;28;1311;-56
2021/07/15 15:33:45;;;;;;;;;;;;;;;;;;5007914;28;1648;-56
2021/07/15 15:36:11;;;;;;;;;;;;;;;;;;5010279;28;1592;-55
2021/07/15 15:38:42;;;;;;;;;;;;;;;;;;5009998;28;1162;-56
2021/07/15 15:41:07;;;;;;;;;;;;;;;;;;5007196;28;1667;-56
2021/07/15 15:43:32;;;;;;;;;;;;;;;;;;5009803;28;1027;-57
2021/07/15 15:45:57;;;;;;;;;;;;;;;;;;5006432;28;1619;-55
2021/07/15 15:48:22;;;;;;;;;;;;;;;;;;5010043;28;1957;-55
2021/07/15 15:50:48;;;;;;;;;;;;;;;;;;5011239;28;1588;-53
2021/07/15 15:53:13;;;;;;;;;;;;;;;;;;5011771;28;1596;-56
2021/07/15 15:55:38;;;;;;;;;;;;;;;;;;5010126;28;1628;-55
2021/07/15 15:58:05;;;;;;;;;;;;;;;;;;5012614;28;1047;-53
2021/07/15 16:00:30;;;;;;;;;;;;;;;;;;5010102;28;1486;-55
2021/07/15 16:02:56;;;;;;;;;;;;;;;;;;5012287;28;1540;-55
2021/07/15 16:05:21;;;;;;;;;;;;;;;;;;5008723;28;1539;-55
2021/07/15 16:07:47;;;;;;;;;;;;;;;;;;5011038;28;1898;-55
2021/07/15 16:10:13;;;;;;;;;;;;;;;;;;5009592;28;1743;-55
2021/07/15 16:12:38;;;;;;;;;;;;;;;;;;5009045;28;1594;-55
2021/07/15 16:15:06;;;;;;;;;;;;;;;;;;5013099;28;1221;-55
2021/07/15 16:17:32;;;;;;;;;;;;;;;;;;5009310;28;2191;-55
2021/07/15 16:19:58;;;;;;;;;;;;;;;;;;5011582;28;1358;-55
2021/07/15 16:22:24;;;;;;;;;;;;;;;;;;5011291;28;1391;-55
2021/07/15 16:24:49;;;;;;;;;;;;;;;;;;5010697;28;1579;-56
2021/07/15 16:27:14;;;;;;;;;;;;;;;;;;4993383;28;1902;-56
2021/07/15 16:29:39;;;;;;;;;;;;;;;;;;5012554;28;1382;-55
2021/07/15 16:32:04;;;;;;;;;;;;;;;;;;5011064;28;1595;-55
2021/07/15 16:34:29;;;;;;;;;;;;;;;;;;5010550;28;1513;-56
2021/07/15 16:36:55;;;;;;;;;;;;;;;;;;5012869;28;1083;-54
2021/07/15 16:39:20;;;;;;;;;;;;;;;;;;5007729;28;1539;-55
2021/07/15 16:41:45;;;;;;;;;;;;;;;;;;5017921;28;1292;-55
2021/07/15 16:44:10;;;;;;;;;;;;;;;;;;5008880;28;1599;-54
2021/07/15 16:46:35;;;;;;;;;;;;;;;;;;5012851;28;1961;-55
2021/07/15 16:49:01;;;;;;;;;;;;;;;;;;5012408;28;1110;-55
2021/07/15 16:51:26;;;;;;;;;;;;;;;;;;5012689;28;1341;-56
2021/07/15 16:53:51;;;;;;;;;;;;;;;;;;5010617;28;1571;-54
2021/07/15 16:56:16;;;;;;;;;;;;;;;;;;5010080;28;1766;-55
2021/07/15 16:58:42;;;;;;;;;;;;;;;;;;5011191;28;1236;-56
2021/07/15 17:01:07;;;;;;;;;;;;;;;;;;5012692;28;1368;-55
2021/07/15 17:03:32;;;;;;;;;;;;;;;;;;5010408;28;1614;-54
2021/07/15 17:05:57;;;;;;;;;;;;;;;;;;5011769;28;1303;-55
2021/07/15 17:08:22;;;;;;;;;;;;;;;;;;5011830;28;1911;-56
2021/07/15 17:10:48;;;;;;;;;;;;;;;;;;5010359;28;1623;-54